Time;durP1;ratioP1;P1;durP2;ratioP2;P2;SDS_P1;SDS_P2;PMS_P1;PMS_P2;Temp;Humidity;BMP_temperature;BMP_pressure;BME280_temperature;BME280_humidity;BME280_pressure;Samples;Min_cycle;Max_cycle;Signal;HPM_P1;HPM_P2
2023/04/06 00:01:38;;;;;;;3.63;2.37;;;3.60;78.90;;;;;;5010405;28;20037;-75
2023/04/06 00:04:23;;;;;;;3.40;2.20;;;3.60;79.00;;;;;;5031272;28;20043;-76
2023/04/06 00:07:07;;;;;;;5.23;2.43;;;3.60;79.20;;;;;;5016363;28;20048;-76
2023/04/06 00:09:52;;;;;;;3.60;2.20;;;3.60;79.20;;;;;;5034033;28;20070;-75
2023/04/06 00:12:37;;;;;;;3.53;2.30;;;3.50;79.30;;;;;;5016261;28;20048;-74
2023/04/06 00:15:05;;;;;;;4.13;2.10;;;3.50;79.50;;;;;;5038087;28;20053;-75
2023/04/06 00:17:50;;;;;;;5.23;2.37;;;3.50;79.60;;;;;;5035475;28;20043;-75
2023/04/06 00:20:16;;;;;;;4.13;2.20;;;3.50;79.70;;;;;;5011890;28;20049;-75
2023/04/06 00:23:01;;;;;;;5.30;2.40;;;3.50;79.80;;;;;;5028040;28;20052;-75
2023/04/06 00:25:27;;;;;;;4.50;2.03;;;3.40;79.80;;;;;;4997379;28;20044;-75
2023/04/06 00:28:12;;;;;;;6.83;2.87;;;3.50;80.10;;;;;;5034332;28;20051;-75
2023/04/06 00:30:57;;;;;;;5.67;2.63;;;3.40;80.10;;;;;;5031050;28;20461;-75
2023/04/06 00:33:24;;;;;;;4.30;2.23;;;3.40;80.20;;;;;;5011952;28;20387;-75
2023/04/06 00:36:09;;;;;;;3.43;1.93;;;3.50;80.40;;;;;;5021347;28;20402;-75
2023/04/06 00:38:35;;;;;;;4.83;1.93;;;3.40;80.40;;;;;;5015546;28;20028;-75
2023/04/06 00:41:03;;;;;;;4.00;2.27;;;3.40;80.60;;;;;;5031368;28;21398;-75
2023/04/06 00:43:30;;;;;;;4.93;2.43;;;3.40;80.80;;;;;;5008449;28;20076;-75
2023/04/06 00:46:14;;;;;;;3.47;2.37;;;3.30;80.80;;;;;;5003774;28;20037;-74
2023/04/06 00:48:41;;;;;;;3.77;2.00;;;3.30;81.00;;;;;;5031657;28;20041;-74
2023/04/06 00:51:07;;;;;;;4.53;3.03;;;3.30;81.20;;;;;;5029979;28;20043;-74
2023/04/06 00:53:33;;;;;;;4.53;2.40;;;3.30;81.30;;;;;;5009821;28;20321;-75
2023/04/06 00:56:01;;;;;;;3.33;2.17;;;3.20;81.40;;;;;;5018808;28;20047;-76
2023/04/06 00:58:33;;;;;;;3.87;2.50;;;3.20;81.40;;;;;;5015940;28;20047;-76
2023/04/06 01:01:24;;;;;;;6.07;2.53;;;3.20;81.50;;;;;;5014692;28;20055;-75
2023/04/06 01:04:11;;;;;;;5.03;2.97;;;3.20;81.50;;;;;;5012129;28;20669;-75
2023/04/06 01:06:59;;;;;;;5.10;2.57;;;3.10;81.60;;;;;;5016848;28;20043;-75
2023/04/06 01:09:32;;;;;;;4.83;2.43;;;3.10;81.80;;;;;;5014279;28;20353;-75
2023/04/06 01:12:03;;;;;;;3.97;2.33;;;3.10;82.00;;;;;;5009894;28;20040;-76
2023/04/06 01:14:50;;;;;;;4.60;2.40;;;3.00;82.00;;;;;;5024038;28;20044;-76
2023/04/06 01:17:35;;;;;;;3.73;2.17;;;3.00;82.10;;;;;;5024945;28;20051;-75
2023/04/06 01:20:09;;;;;;;4.63;1.87;;;3.00;82.20;;;;;;4999042;28;20048;-74
2023/04/06 01:22:35;;;;;;;5.57;2.10;;;3.00;82.30;;;;;;4995387;28;20435;-75
2023/04/06 01:25:03;;;;;;;4.93;2.70;;;3.00;82.50;;;;;;5035363;28;20391;-75
2023/04/06 01:28:15;;;;;;;3.13;2.33;;;3.00;82.70;;;;;;5036929;28;20045;-74
2023/04/06 01:30:54;;;;;;;5.10;2.73;;;3.00;82.70;;;;;;5000405;28;20047;-75
2023/04/06 01:33:40;;;;;;;5.10;3.27;;;3.00;82.90;;;;;;5014107;28;20036;-74
2023/04/06 01:36:28;;;;;;;5.17;2.67;;;2.90;83.10;;;;;;5019581;28;20498;-74
2023/04/06 01:39:22;;;;;;;5.40;2.53;;;2.90;83.20;;;;;;5011611;28;20376;-75
2023/04/06 01:41:48;;;;;;;4.63;2.60;;;2.90;83.20;;;;;;5000096;28;20047;-74
2023/04/06 01:44:18;;;;;;;4.13;2.30;;;2.90;83.30;;;;;;5014941;28;20491;-75
2023/04/06 01:46:48;;;;;;;4.27;2.30;;;2.90;83.50;;;;;;4986441;28;20045;-75
2023/04/06 01:49:36;;;;;;;4.50;2.50;;;2.90;83.60;;;;;;5018464;28;20053;-75
2023/04/06 01:52:03;;;;;;;4.80;2.43;;;2.90;83.80;;;;;;5028402;28;20063;-75
2023/04/06 01:54:30;;;;;;;4.90;2.57;;;2.80;83.80;;;;;;4997363;28;20040;-75
2023/04/06 01:57:32;;;;;;;3.50;2.43;;;2.80;84.10;;;;;;5011154;28;20218;-74
2023/04/06 02:00:08;;;;;;;6.00;2.73;;;2.80;84.10;;;;;;5019195;28;20037;-75
2023/04/06 02:03:03;;;;;;;5.60;2.50;;;2.80;84.30;;;;;;5019336;28;20506;-76
2023/04/06 02:05:37;;;;;;;4.50;2.53;;;2.80;84.40;;;;;;5017186;28;20052;-75
2023/04/06 02:08:22;;;;;;;6.00;3.20;;;2.80;84.60;;;;;;5005314;28;20067;-75
2023/04/06 02:10:48;;;;;;;5.03;2.73;;;2.80;84.60;;;;;;4997399;28;20024;-75
2023/04/06 02:13:43;;;;;;;5.03;2.80;;;2.80;84.80;;;;;;5013751;28;20036;-75
2023/04/06 02:16:10;;;;;;;7.73;3.37;;;2.80;84.90;;;;;;5001351;28;20383;-75
2023/04/06 02:18:56;;;;;;;4.87;2.90;;;2.70;85.10;;;;;;5022031;28;20040;-75
2023/04/06 02:21:41;;;;;;;4.33;2.90;;;2.70;85.40;;;;;;5022473;28;20064;-76
2023/04/06 02:24:25;;;;;;;4.23;2.73;;;2.70;85.60;;;;;;5021271;28;20514;-74
2023/04/06 02:26:51;;;;;;;4.63;3.07;;;2.70;85.70;;;;;;5017651;28;20043;-74
2023/04/06 02:29:17;;;;;;;4.10;2.43;;;2.70;86.00;;;;;;5017063;28;20375;-73
2023/04/06 02:31:44;;;;;;;4.80;2.93;;;2.70;86.20;;;;;;5000380;28;20043;-73
2023/04/06 02:34:11;;;;;;;5.80;3.40;;;2.60;86.40;;;;;;4982151;28;20047;-74
2023/04/06 02:36:59;;;;;;;4.43;2.50;;;2.60;86.60;;;;;;5021300;28;20499;-74
2023/04/06 02:39:25;;;;;;;5.50;3.07;;;2.60;86.70;;;;;;5004830;28;20049;-74
2023/04/06 02:42:10;;;;;;;5.50;2.90;;;2.60;86.80;;;;;;5016658;28;20474;-76
2023/04/06 02:44:36;;;;;;;4.23;2.80;;;2.60;87.00;;;;;;5017357;28;20037;-73
2023/04/06 02:47:03;;;;;;;4.50;3.03;;;2.60;87.30;;;;;;4999912;28;20059;-74
2023/04/06 02:49:30;;;;;;;4.30;2.87;;;2.60;87.50;;;;;;5017459;28;20028;-73
2023/04/06 02:52:17;;;;;;;4.00;2.67;;;2.60;87.70;;;;;;5029503;28;20060;-73
2023/04/06 02:55:03;;;;;;;3.83;2.60;;;2.60;87.80;;;;;;5020379;28;20506;-74
2023/04/06 02:57:31;;;;;;;4.70;2.10;;;2.60;87.80;;;;;;5033689;28;21454;-73
2023/04/06 03:00:16;;;;;;;5.20;2.67;;;2.60;87.90;;;;;;5038079;28;20043;-74
2023/04/06 03:03:01;;;;;;;6.17;3.80;;;2.60;88.00;;;;;;5017306;28;20038;-74
2023/04/06 03:05:27;;;;;;;6.57;3.80;;;2.60;88.10;;;;;;5002587;28;20032;-75
2023/04/06 03:07:54;;;;;;;5.03;3.20;;;2.70;88.40;;;;;;5019710;28;20343;-74
2023/04/06 03:10:34;;;;;;;9.50;4.70;;;2.70;88.50;;;;;;5000646;28;20032;-73
2023/04/06 03:13:18;;;;;;;4.73;3.23;;;2.80;88.80;;;;;;5028413;28;20376;-73
2023/04/06 03:16:07;;;;;;;4.47;2.83;;;2.80;88.80;;;;;;5021089;28;20044;-73
2023/04/06 03:18:53;;;;;;;4.43;2.20;;;2.80;88.80;;;;;;5014570;28;20817;-73
2023/04/06 03:21:20;;;;;;;4.60;3.00;;;2.80;88.80;;;;;;5018100;28;20049;-73
2023/04/06 03:23:51;;;;;;;4.23;2.70;;;2.80;88.90;;;;;;4998673;28;20062;-73
2023/04/06 03:26:36;;;;;;;5.30;3.00;;;2.80;89.10;;;;;;5012937;28;20151;-74
2023/04/06 03:29:25;;;;;;;5.00;3.13;;;2.90;89.20;;;;;;4997997;28;20495;-73
2023/04/06 03:32:10;;;;;;;4.77;2.73;;;2.90;89.30;;;;;;5007054;28;20044;-73
2023/04/06 03:34:40;;;;;;;4.87;2.33;;;2.90;89.40;;;;;;5011267;28;20044;-73
2023/04/06 03:37:08;;;;;;;5.53;3.23;;;2.90;89.50;;;;;;5015844;28;20050;-74
2023/04/06 03:39:54;;;;;;;5.97;3.50;;;3.00;89.60;;;;;;5019724;28;20051;-74
2023/04/06 03:42:23;;;;;;;7.77;3.77;;;3.00;89.70;;;;;;5011382;28;20494;-73
2023/04/06 03:45:13;;;;;;;6.60;4.10;;;3.00;89.90;;;;;;5012601;28;20040;-73
2023/04/06 03:48:05;;;;;;;9.10;3.73;;;3.00;90.00;;;;;;5020138;28;20059;-73
2023/04/06 03:50:33;;;;;;;5.07;3.13;;;3.00;90.00;;;;;;4995527;28;20048;-73
2023/04/06 03:53:02;;;;;;;5.03;3.30;;;3.00;90.10;;;;;;5007883;28;20033;-73
2023/04/06 03:55:29;;;;;;;4.63;3.30;;;3.00;90.20;;;;;;5013812;28;20833;-74
2023/04/06 03:57:56;;;;;;;5.03;3.47;;;3.00;90.20;;;;;;4999425;28;20029;-74
2023/04/06 04:00:42;;;;;;;5.97;3.30;;;3.00;90.30;;;;;;5015767;28;20055;-74
2023/04/06 04:03:09;;;;;;;5.80;3.30;;;3.00;90.40;;;;;;5014854;28;20037;-74
2023/04/06 04:05:55;;;;;;;5.17;3.10;;;3.00;90.50;;;;;;5023189;28;20051;-74
2023/04/06 04:08:41;;;;;;;6.20;2.80;;;3.00;90.60;;;;;;5020248;28;20043;-73
2023/04/06 04:11:08;;;;;;;4.87;3.03;;;3.00;90.60;;;;;;5013770;28;20037;-74
2023/04/06 04:13:53;;;;;;;4.53;3.00;;;3.10;90.70;;;;;;5012711;28;20387;-74
2023/04/06 04:16:19;;;;;;;8.93;4.50;;;3.10;90.70;;;;;;5014964;28;20024;-73
2023/04/06 04:19:04;;;;;;;5.03;3.17;;;3.10;90.70;;;;;;5017381;28;20474;-74
2023/04/06 04:21:31;;;;;;;9.33;4.70;;;3.10;90.80;;;;;;5032320;28;20051;-74
2023/04/06 04:24:00;;;;;;;8.27;3.97;;;3.10;90.80;;;;;;4996969;28;20464;-73
2023/04/06 04:26:26;;;;;;;10.47;5.03;;;3.20;90.80;;;;;;5019014;28;20675;-73
2023/04/06 04:28:54;;;;;;;7.17;5.00;;;3.20;90.90;;;;;;5015029;28;20035;-74
2023/04/06 04:31:22;;;;;;;7.90;4.97;;;3.20;90.90;;;;;;5031997;28;20032;-73
2023/04/06 04:34:11;;;;;;;9.37;5.03;;;3.30;90.90;;;;;;5030119;28;20518;-74
2023/04/06 04:36:38;;;;;;;6.50;4.30;;;3.30;90.90;;;;;;5015353;28;20401;-73
2023/04/06 04:39:08;;;;;;;7.17;4.23;;;3.30;90.90;;;;;;5016273;28;23346;-74
2023/04/06 04:41:38;;;;;;;8.00;4.83;;;3.40;91.00;;;;;;4995100;28;20044;-74
2023/04/06 04:44:26;;;;;;;7.53;4.73;;;3.40;91.10;;;;;;5019556;28;20036;-72
2023/04/06 04:47:11;;;;;;;8.17;5.50;;;3.40;91.00;;;;;;5019913;28;20391;-73
2023/04/06 04:49:43;;;;;;;7.55;4.45;;;3.40;91.00;;;;;;4997584;28;20057;-73
2023/04/06 04:52:29;;;;;;;6.73;4.70;;;3.50;91.10;;;;;;5010753;28;20053;-75
2023/04/06 04:55:03;;;;;;;6.10;3.93;;;3.40;91.00;;;;;;5000425;28;20051;-73
2023/04/06 04:57:47;;;;;;;8.80;5.67;;;3.50;91.10;;;;;;5017334;28;20486;-73
2023/04/06 05:00:34;;;;;;;7.67;4.23;;;3.50;91.10;;;;;;5013661;28;20047;-73
2023/04/06 05:03:00;;;;;;;11.00;5.40;;;3.50;91.10;;;;;;5009900;28;20720;-73
2023/04/06 05:05:49;;;;;;;8.47;5.50;;;3.50;91.20;;;;;;5022688;28;20043;-72
2023/04/06 05:08:35;;;;;;;6.20;3.80;;;3.50;91.20;;;;;;5018931;28;20047;-74
2023/04/06 05:11:02;;;;;;;4.90;3.23;;;3.50;91.30;;;;;;5010976;28;20036;-73
2023/04/06 05:13:51;;;;;;;8.93;4.67;;;3.50;91.30;;;;;;5012653;28;20080;-76
2023/04/06 05:16:40;;;;;;;4.83;3.43;;;3.50;91.40;;;;;;5017838;28;20047;-76
2023/04/06 05:19:25;;;;;;;5.90;3.60;;;3.50;91.40;;;;;;5031381;28;20051;-74
2023/04/06 05:22:10;;;;;;;4.43;3.30;;;3.50;91.40;;;;;;5008052;28;20048;-74
2023/04/06 05:24:40;;;;;;;7.30;4.90;;;3.50;91.40;;;;;;4997467;28;20584;-73
2023/04/06 05:27:07;;;;;;;8.47;4.17;;;3.60;91.40;;;;;;5016245;28;20043;-76
2023/04/06 05:29:34;;;;;;;8.27;4.73;;;3.60;91.40;;;;;;5011888;28;21076;-75
2023/04/06 05:32:21;;;;;;;6.43;3.33;;;3.70;91.40;;;;;;5005436;28;20320;-77
2023/04/06 05:34:49;;;;;;;7.13;4.20;;;3.70;91.40;;;;;;5009947;28;20032;-77
2023/04/06 05:37:34;;;;;;;8.10;4.63;;;3.80;91.50;;;;;;5013560;28;20510;-76
2023/04/06 05:40:20;;;;;;;7.20;4.87;;;3.90;91.40;;;;;;5009650;28;20047;-74
2023/04/06 05:42:46;;;;;;;10.40;4.70;;;3.90;91.40;;;;;;4990744;28;20371;-75
2023/04/06 05:45:19;;;;;;;9.17;5.60;;;4.00;91.40;;;;;;4983708;28;20051;-75
2023/04/06 05:47:51;;;;;;;8.43;5.20;;;4.10;91.40;;;;;;4980224;28;20055;-75
2023/04/06 05:50:50;;;;;;;9.23;5.30;;;4.20;91.50;;;;;;5001564;28;20087;-75
2023/04/06 05:53:36;;;;;;;12.60;6.97;;;4.30;91.40;;;;;;5008487;28;20489;-76
2023/04/06 05:56:21;;;;;;;9.47;6.80;;;4.40;91.40;;;;;;5032838;28;20044;-75
2023/04/06 05:59:06;;;;;;;11.20;6.83;;;4.50;91.50;;;;;;5031446;28;20053;-76
2023/04/06 06:01:33;;;;;;;9.27;6.13;;;4.60;91.40;;;;;;4991780;28;20048;-75
2023/04/06 06:04:18;;;;;;;8.13;5.27;;;4.70;91.40;;;;;;5015873;28;20047;-75
2023/04/06 06:06:46;;;;;;;9.33;5.03;;;4.80;91.40;;;;;;5016204;28;20759;-76
2023/04/06 06:09:41;;;;;;;11.50;6.73;;;4.80;91.40;;;;;;5019852;28;20048;-75
2023/04/06 06:12:17;;;;;;;9.03;6.03;;;4.90;91.40;;;;;;5005423;28;20056;-75
2023/04/06 06:15:03;;;;;;;8.37;5.80;;;5.00;91.50;;;;;;5032451;28;20047;-76
2023/04/06 06:17:38;;;;;;;10.37;6.43;;;5.10;91.40;;;;;;5015758;28;20664;-76
2023/04/06 06:20:24;;;;;;;10.40;6.63;;;5.20;91.50;;;;;;5015947;28;20079;-75
2023/04/06 06:23:10;;;;;;;12.97;7.07;;;5.40;91.50;;;;;;5002214;28;20043;-75
2023/04/06 06:25:37;;;;;;;9.70;5.77;;;5.60;91.40;;;;;;5021530;28;21071;-76
2023/04/06 06:28:22;;;;;;;12.60;6.73;;;5.80;91.40;;;;;;5023861;28;20055;-75
2023/04/06 06:31:07;;;;;;;13.23;7.60;;;5.90;91.30;;;;;;5033178;28;20048;-74
2023/04/06 06:33:53;;;;;;;10.83;7.20;;;5.90;91.30;;;;;;5000112;28;20043;-72
2023/04/06 06:36:21;;;;;;;12.93;8.30;;;6.00;91.30;;;;;;5013173;28;20044;-75
2023/04/06 06:38:47;;;;;;;13.40;7.23;;;6.00;91.30;;;;;;4999435;28;20037;-75
2023/04/06 06:41:35;;;;;;;10.93;7.30;;;6.10;91.40;;;;;;5016376;28;20047;-75
2023/04/06 06:44:21;;;;;;;18.13;8.43;;;6.20;91.40;;;;;;5018270;28;20051;-75
2023/04/06 06:47:06;;;;;;;13.50;8.23;;;6.30;91.40;;;;;;5022986;28;20050;-73
2023/04/06 06:49:32;;;;;;;15.73;9.18;;;6.50;91.30;;;;;;5037739;28;20044;-74
2023/04/06 06:51:59;;;;;;;16.77;9.70;;;6.80;91.30;;;;;;4992564;28;20475;-74
2023/04/06 06:54:25;;;;;;;15.37;9.10;;;7.00;91.20;;;;;;5015482;28;20040;-75
2023/04/06 06:56:51;;;;;;;14.47;7.57;;;7.20;91.00;;;;;;5015232;28;21225;-75
2023/04/06 06:59:18;;;;;;;13.87;8.27;;;7.40;90.70;;;;;;4998085;28;20045;-75
2023/04/06 07:01:44;;;;;;;13.90;8.63;;;7.60;90.60;;;;;;5013765;28;20036;-76
2023/04/06 07:04:11;;;;;;;15.00;8.52;;;7.80;90.50;;;;;;4997813;28;20139;-77
2023/04/06 07:06:37;;;;;;;15.98;9.23;;;7.90;90.10;;;;;;5002807;28;20801;-77
2023/04/06 07:09:03;;;;;;;14.52;9.07;;;8.00;90.00;;;;;;5039588;28;20044;-75
2023/04/06 07:11:30;;;;;;;17.63;11.07;;;8.00;89.80;;;;;;5015092;28;20036;-76
2023/04/06 07:13:56;;;;;;;18.13;10.48;;;8.00;89.40;;;;;;5031426;28;20039;-75
2023/04/06 07:16:22;;;;;;;16.58;9.82;;;8.00;89.40;;;;;;5000708;28;20055;-76
2023/04/06 07:18:49;;;;;;;16.65;10.50;;;8.00;89.10;;;;;;4998634;28;20044;-76
2023/04/06 07:21:16;;;;;;;15.07;10.38;;;8.00;89.20;;;;;;5011744;28;20060;-75
2023/04/06 07:23:43;;;;;;;15.50;9.75;;;8.10;89.10;;;;;;5009421;28;20836;-75
2023/04/06 07:26:09;;;;;;;11.88;8.45;;;8.10;89.10;;;;;;5003421;28;20040;-77
2023/04/06 07:28:37;;;;;;;13.52;9.77;;;8.20;89.10;;;;;;5038550;28;21020;-75
2023/04/06 07:31:04;;;;;;;15.85;9.93;;;8.20;89.00;;;;;;5016205;28;20044;-75
2023/04/06 07:33:30;;;;;;;16.85;10.82;;;8.30;89.00;;;;;;5011388;28;20036;-75
2023/04/06 07:35:58;;;;;;;12.40;8.23;;;8.30;89.10;;;;;;5017278;28;20060;-76
2023/04/06 07:38:25;;;;;;;13.65;8.73;;;8.40;89.30;;;;;;5016106;28;20043;-75
2023/04/06 07:40:52;;;;;;;11.85;8.35;;;8.40;89.30;;;;;;4981154;28;20040;-76
2023/04/06 07:43:19;;;;;;;12.20;8.15;;;8.60;89.30;;;;;;4995034;28;20128;-76
2023/04/06 07:45:46;;;;;;;13.73;8.88;;;8.70;89.30;;;;;;4999734;28;20027;-76
2023/04/06 07:48:16;;;;;;;15.95;10.10;;;8.90;89.20;;;;;;5018512;28;20483;-75
2023/04/06 07:50:42;;;;;;;16.15;9.57;;;9.00;88.90;;;;;;5015183;28;20048;-76
2023/04/06 07:53:09;;;;;;;13.55;8.35;;;9.10;88.80;;;;;;5003428;28;20036;-76
2023/04/06 07:55:37;;;;;;;12.02;7.63;;;9.20;88.70;;;;;;5015644;28;20045;-76
2023/04/06 07:58:03;;;;;;;13.05;9.52;;;9.40;88.70;;;;;;5033965;28;20043;-75
2023/04/06 08:00:33;;;;;;;17.27;11.23;;;9.60;88.30;;;;;;5031043;28;20403;-76
2023/04/06 08:02:59;;;;;;;17.25;9.85;;;9.60;87.90;;;;;;5030807;28;20048;-76
2023/04/06 08:05:25;;;;;;;16.55;10.13;;;9.70;87.50;;;;;;5037634;28;20032;-75
2023/04/06 08:07:52;;;;;;;13.90;9.27;;;9.60;87.00;;;;;;5038571;28;20482;-75
2023/04/06 08:10:18;;;;;;;13.90;10.40;;;9.70;87.00;;;;;;5034944;28;20428;-75
2023/04/06 08:12:44;;;;;;;15.43;9.65;;;9.60;86.40;;;;;;5031270;28;20028;-75
2023/04/06 08:15:10;;;;;;;14.25;9.23;;;9.60;86.50;;;;;;4985418;28;20469;-76
2023/04/06 08:17:37;;;;;;;17.35;9.65;;;9.50;86.50;;;;;;5001682;28;20499;-75
2023/04/06 08:20:03;;;;;;;16.10;10.00;;;9.50;86.40;;;;;;5012591;28;20057;-76
2023/04/06 08:22:30;;;;;;;13.68;9.70;;;9.50;86.40;;;;;;5009600;28;20345;-76
2023/04/06 08:24:56;;;;;;;17.83;10.23;;;9.40;86.60;;;;;;4984842;28;20032;-76
2023/04/06 08:27:22;;;;;;;15.63;9.07;;;9.50;86.50;;;;;;5004148;28;20375;-75
2023/04/06 08:29:50;;;;;;;14.63;9.90;;;9.50;86.60;;;;;;5036765;28;20032;-74
2023/04/06 08:32:16;;;;;;;14.48;8.55;;;9.60;86.70;;;;;;5028335;28;20581;-76
2023/04/06 08:34:43;;;;;;;17.85;10.35;;;9.70;86.60;;;;;;5015314;28;20032;-76
2023/04/06 08:37:09;;;;;;;19.17;10.00;;;9.70;86.20;;;;;;5014700;28;20032;-75
2023/04/06 08:39:35;;;;;;;15.60;10.82;;;9.70;86.20;;;;;;5033415;28;20039;-76
2023/04/06 08:42:02;;;;;;;17.15;9.90;;;9.80;86.10;;;;;;4991537;28;20044;-75
2023/04/06 08:44:31;;;;;;;15.13;8.98;;;9.80;85.90;;;;;;5015471;28;20028;-76
2023/04/06 08:46:59;;;;;;;13.38;9.55;;;9.90;86.00;;;;;;5016923;28;20033;-75
2023/04/06 08:49:26;;;;;;;12.77;9.00;;;10.00;85.90;;;;;;5035245;28;20221;-75
2023/04/06 08:51:52;;;;;;;17.63;11.32;;;10.10;85.70;;;;;;4995434;28;20492;-75
2023/04/06 08:54:19;;;;;;;17.08;10.30;;;10.20;85.10;;;;;;5033084;28;20507;-76
2023/04/06 08:56:47;;;;;;;15.45;11.07;;;10.40;84.90;;;;;;5014186;28;20047;-75
2023/04/06 08:59:14;;;;;;;16.50;9.95;;;10.50;84.50;;;;;;5013260;28;20039;-74
2023/04/06 09:01:42;;;;;;;16.77;9.73;;;10.60;83.90;;;;;;4993538;28;20685;-73
2023/04/06 09:04:11;;;;;;;13.85;9.10;;;10.80;83.90;;;;;;5030506;28;20043;-75
2023/04/06 09:06:38;;;;;;;15.48;10.68;;;10.90;83.90;;;;;;5001508;28;20032;-74
2023/04/06 09:09:04;;;;;;;17.33;11.35;;;11.10;82.80;;;;;;5037678;28;20036;-75
2023/04/06 09:11:45;;;;;;;15.18;10.02;;;11.10;82.50;;;;;;5012880;28;20459;-75
2023/04/06 09:14:12;;;;;;;20.83;11.05;;;11.30;82.60;;;;;;5018474;28;20545;-73
2023/04/06 09:16:44;;;;;;;14.82;10.20;;;11.40;82.20;;;;;;5029618;28;20624;-74
2023/04/06 09:19:11;;;;;;;;;;;11.50;82.00;;;;;;5034152;28;20048;-73
2023/04/06 09:21:39;;;;;;;18.30;11.45;;;11.60;81.50;;;;;;5016202;28;19931;-75
2023/04/06 09:24:09;;;;;;;16.25;8.98;;;11.70;81.60;;;;;;5030728;28;20040;-76
2023/04/06 09:26:47;;;;;;;14.90;10.10;;;11.80;81.40;;;;;;5021807;28;20476;-75
2023/04/06 09:29:26;;;;;;;11.35;8.93;;;12.00;81.50;;;;;;5022072;28;20043;-75
2023/04/06 09:32:01;;;;;;;16.42;10.18;;;12.30;81.30;;;;;;5034674;28;20024;-74
2023/04/06 09:34:27;;;;;;;15.23;10.80;;;12.30;80.90;;;;;;5038092;28;20044;-75
2023/04/06 09:36:54;;;;;;;15.30;11.38;;;12.40;80.40;;;;;;5038468;28;20068;-75
2023/04/06 09:39:26;;;;;;;16.83;11.45;;;12.40;80.50;;;;;;5018267;28;20060;-75
2023/04/06 09:41:54;;;;;;;18.33;12.38;;;12.50;80.20;;;;;;5014469;28;20041;-75
2023/04/06 09:44:20;;;;;;;14.80;11.27;;;12.60;79.60;;;;;;5037633;28;20033;-75
2023/04/06 09:46:47;;;;;;;17.45;12.73;;;12.50;79.50;;;;;;5025737;28;20044;-74
2023/04/06 09:49:14;;;;;;;18.15;12.90;;;12.60;79.80;;;;;;5025954;28;20040;-75
2023/04/06 09:51:48;;;;;;;20.60;12.85;;;12.60;79.80;;;;;;5036776;28;20427;-75
2023/04/06 09:54:23;;;;;;;17.67;13.15;;;12.70;79.90;;;;;;4994112;28;20040;-75
2023/04/06 09:57:03;;;;;;;15.90;12.18;;;12.80;79.80;;;;;;5038362;28;20044;-74
2023/04/06 09:59:51;;;;;;;17.45;12.98;;;12.90;79.60;;;;;;5036705;28;20394;-75
2023/04/06 10:02:50;;;;;;;17.48;12.77;;;13.10;79.40;;;;;;5011029;28;20041;-72
2023/04/06 10:05:28;;;;;;;17.45;11.55;;;13.10;79.10;;;;;;5038197;28;20171;-74
2023/04/06 10:07:58;;;;;;;15.80;11.23;;;13.20;79.10;;;;;;5024965;28;20722;-73
2023/04/06 10:10:25;;;;;;;15.93;11.60;;;13.40;79.40;;;;;;5036880;28;20491;-74
2023/04/06 10:12:51;;;;;;;17.90;12.77;;;13.50;79.40;;;;;;5032781;28;20040;-74
2023/04/06 10:15:18;;;;;;;18.40;12.35;;;13.60;79.00;;;;;;5006879;28;20036;-73
2023/04/06 10:17:44;;;;;;;21.05;14.82;;;13.80;79.00;;;;;;5003255;28;20059;-74
2023/04/06 10:20:17;;;;;;;19.52;13.20;;;13.80;78.60;;;;;;5016095;28;20059;-74
2023/04/06 10:22:56;;;;;;;22.23;14.02;;;13.80;78.50;;;;;;5012769;28;20041;-75
2023/04/06 10:25:27;;;;;;;17.33;12.23;;;13.80;78.50;;;;;;5021656;28;20029;-74
2023/04/06 10:28:14;;;;;;;19.45;14.43;;;13.90;78.30;;;;;;5007297;28;20056;-75
2023/04/06 10:30:43;;;;;;;16.52;12.68;;;13.90;77.90;;;;;;5003254;28;20056;-75
2023/04/06 10:33:28;;;;;;;22.55;13.13;;;14.00;78.10;;;;;;5034183;28;20395;-75
2023/04/06 10:35:57;;;;;;;21.73;15.07;;;14.00;77.60;;;;;;5036815;28;20444;-75
2023/04/06 10:38:35;;;;;;;20.90;14.93;;;14.00;76.90;;;;;;5019861;28;20036;-76
2023/04/06 10:41:05;;;;;;;16.90;11.05;;;13.90;77.00;;;;;;5033213;28;20130;-75
2023/04/06 10:43:36;;;;;;;16.13;10.35;;;13.90;76.70;;;;;;5013605;28;20509;-75
2023/04/06 10:46:04;;;;;;;14.90;10.40;;;13.90;77.20;;;;;;5017891;28;20035;-76
2023/04/06 10:48:47;;;;;;;13.40;9.07;;;14.00;77.20;;;;;;5020047;28;20040;-78
2023/04/06 10:51:15;;;;;;;;;;;14.00;77.40;;;;;;5019559;28;20036;-76
2023/04/06 10:53:43;;;;;;;17.85;11.70;;;14.00;77.00;;;;;;5014083;28;19916;-76
2023/04/06 10:56:14;;;;;;;14.65;10.65;;;14.00;77.20;;;;;;5036903;28;20040;-77
2023/04/06 10:58:46;;;;;;;17.13;11.88;;;14.10;77.40;;;;;;5003093;28;20043;-76
2023/04/06 11:01:13;;;;;;;17.70;11.75;;;14.20;77.10;;;;;;5015881;28;20032;-77
2023/04/06 11:03:59;;;;;;;14.63;11.60;;;14.40;77.20;;;;;;5012986;28;20506;-77
2023/04/06 11:06:29;;;;;;;16.85;12.85;;;14.60;77.20;;;;;;5038137;28;20032;-77
2023/04/06 11:08:56;;;;;;;14.10;11.18;;;14.80;76.80;;;;;;5022953;28;20582;-78
2023/04/06 11:11:26;;;;;;;17.75;12.05;;;14.90;76.80;;;;;;5019837;28;20997;-76
2023/04/06 11:13:54;;;;;;;17.17;11.73;;;15.10;76.60;;;;;;5034372;28;20863;-76
2023/04/06 11:16:24;;;;;;;14.77;10.82;;;15.20;76.10;;;;;;5036761;28;20043;-76
2023/04/06 11:19:01;;;;;;;19.50;12.02;;;15.20;76.00;;;;;;5034132;28;20032;-77
2023/04/06 11:21:39;;;;;;;10.23;8.95;;;15.20;75.90;;;;;;5015823;28;20036;-78
2023/04/06 11:24:07;;;;;;;13.55;8.88;;;15.10;76.20;;;;;;5031569;28;20041;-75
2023/04/06 11:26:51;;;;;;;15.27;10.15;;;15.00;76.50;;;;;;5036451;28;20027;-76
2023/04/06 11:29:19;;;;;;;13.63;9.20;;;15.10;76.80;;;;;;5036472;28;20044;-75
2023/04/06 11:31:48;;;;;;;11.00;8.85;;;15.10;76.90;;;;;;4983593;28;20039;-75
2023/04/06 11:34:22;;;;;;;14.38;10.45;;;15.20;77.50;;;;;;5033051;28;20059;-76
2023/04/06 11:36:54;;;;;;;16.25;13.25;;;15.30;77.40;;;;;;5005908;28;20047;-77
2023/04/06 11:39:23;;;;;;;17.67;12.20;;;15.30;77.50;;;;;;5038220;28;20052;-76
2023/04/06 11:41:51;;;;;;;14.85;11.95;;;15.30;77.30;;;;;;5013186;28;20028;-75
2023/04/06 11:44:32;;;;;;;13.98;9.82;;;15.30;77.10;;;;;;5015788;28;20580;-75
2023/04/06 11:47:00;;;;;;;11.07;9.02;;;15.20;77.40;;;;;;5016583;28;20028;-75
2023/04/06 11:49:31;;;;;;;11.07;8.70;;;15.20;78.00;;;;;;5017649;28;20064;-74
2023/04/06 11:51:59;;;;;;;8.60;7.47;;;15.10;78.20;;;;;;4981599;28;20037;-74
2023/04/06 11:54:40;;;;;;;12.13;9.40;;;14.90;78.20;;;;;;5015928;28;20076;-75
2023/04/06 11:57:08;;;;;;;12.27;9.05;;;14.70;79.10;;;;;;5039477;28;20116;-75
2023/04/06 11:59:35;;;;;;;8.13;7.30;;;14.50;80.60;;;;;;5038318;28;20044;-75
2023/04/06 12:02:03;;;;;;;10.95;8.63;;;14.30;82.10;;;;;;5013242;28;20044;-74
2023/04/06 12:04:29;;;;;;;10.45;7.88;;;14.10;83.50;;;;;;5020149;28;20043;-74
2023/04/06 12:06:56;;;;;;;10.75;8.70;;;14.00;84.90;;;;;;5018837;28;20494;-74
2023/04/06 12:09:23;;;;;;;11.55;8.20;;;13.80;86.30;;;;;;5031369;28;20036;-74
2023/04/06 12:11:49;;;;;;;12.30;7.97;;;13.50;87.70;;;;;;5013303;28;20044;-73
2023/04/06 12:14:15;;;;;;;13.73;8.73;;;13.50;89.90;;;;;;5032541;28;20036;-74
2023/04/06 12:16:42;;;;;;;12.27;7.78;;;13.40;90.60;;;;;;5019238;28;20044;-74
2023/04/06 12:19:08;;;;;;;9.38;7.53;;;13.30;91.00;;;;;;4983842;28;20051;-73
2023/04/06 12:21:38;;;;;;;10.23;7.35;;;13.20;91.50;;;;;;5015426;28;20055;-73
2023/04/06 12:24:05;;;;;;;10.43;7.90;;;13.10;91.90;;;;;;5029517;28;20043;-73
2023/04/06 12:26:32;;;;;;;9.60;7.55;;;13.00;92.30;;;;;;5030790;28;20040;-73
2023/04/06 12:29:06;;;;;;;10.23;7.13;;;12.80;93.10;;;;;;5033603;28;20052;-73
2023/04/06 12:31:34;;;;;;;9.60;7.43;;;12.70;93.50;;;;;;5031634;28;20364;-73
2023/04/06 12:34:02;;;;;;;9.98;7.57;;;12.60;94.10;;;;;;5009808;28;20475;-72
2023/04/06 12:36:29;;;;;;;9.95;7.60;;;12.50;94.60;;;;;;5014704;28;20398;-72
2023/04/06 12:38:55;;;;;;;10.93;8.75;;;12.40;94.90;;;;;;5036622;28;20028;-72
2023/04/06 12:41:22;;;;;;;10.50;8.02;;;12.30;95.40;;;;;;5033363;28;20624;-73
2023/04/06 12:43:50;;;;;;;9.82;7.85;;;12.20;96.00;;;;;;4981399;28;20040;-73
2023/04/06 12:46:16;;;;;;;9.10;7.10;;;12.10;96.40;;;;;;5014801;28;20036;-74
2023/04/06 12:48:42;;;;;;;8.98;7.28;;;12.00;96.90;;;;;;5014459;28;20037;-74
2023/04/06 12:51:08;;;;;;;8.10;5.80;;;11.80;97.40;;;;;;5011543;28;20499;-75
2023/04/06 12:53:35;;;;;;;7.18;5.75;;;11.60;97.90;;;;;;5009952;28;20024;-75
2023/04/06 12:56:02;;;;;;;7.05;5.43;;;11.30;98.30;;;;;;5014876;28;20028;-77
2023/04/06 12:58:29;;;;;;;7.55;5.45;;;11.20;98.80;;;;;;5016835;28;20044;-76
2023/04/06 13:01:02;;;;;;;6.72;4.93;;;11.10;99.40;;;;;;5012948;28;20032;-78
2023/04/06 13:03:29;;;;;;;8.07;5.35;;;11.00;99.90;;;;;;5034545;28;20040;-77
2023/04/06 13:05:55;;;;;;;7.82;5.07;;;10.90;99.90;;;;;;4991128;28;20044;-79
2023/04/06 13:08:21;;;;;;;7.53;5.05;;;10.80;99.90;;;;;;5000041;28;20458;-81
2023/04/06 13:10:50;;;;;;;7.18;4.38;;;10.80;99.90;;;;;;5001004;28;20507;-82
2023/04/06 13:13:17;;;;;;;7.05;5.28;;;10.70;99.90;;;;;;5009216;28;20033;-82
2023/04/06 13:15:44;;;;;;;8.82;4.95;;;10.60;99.90;;;;;;5015149;28;20044;-86
2023/04/06 13:18:11;;;;;;;8.40;5.60;;;10.50;99.90;;;;;;5039990;28;20037;-83
2023/04/06 13:20:37;;;;;;;7.88;4.45;;;10.50;99.90;;;;;;5000749;28;20063;-82